Sully Station, Virginia
Current Conditions -  °F | °C
As of 12:52 AM on Saturday 20 Dec 2014 (Local Time) from KIAD Reporting Station
Clear Clear  
Wind Chill: 20°   Ceiling: Unl
Heat Index: 29°   Visibility: 10mi
Dew Point: 20°   Wind: 9mph
Humidity: 69%   Direction: 340°NNW
Pressure: 30.24"   Gusts: NA
Location:  38.853°N, 77.4732°W
Report Text: KIAD 200552Z 34008KT 10SM CLR M02/M07 A3024 RMK AO2 SLP242 T10171067 11006 21017 58004
Loading
Personal Weather Stations






























Interactive Weather Map New forecast layout! Learn more

10-Day Weather Forecast

Advertisements
Track Severe Weather on mobile